Time;durP1;ratioP1;P1;durP2;ratioP2;P2;SDS_P1;SDS_P2;PMS_P1;PMS_P2;Temp;Humidity;BMP_temperature;BMP_pressure;BME280_temperature;BME280_humidity;BME280_pressure;Samples;Min_cycle;Max_cycle;Signal;HPM_P1;HPM_P2
2022/01/08 00:04:48;;;;;;;44.55;20.73;;;1.70;99.90;;;;;;12398440;28;20780;-89
2022/01/08 00:10:53;;;;;;;35.45;19.65;;;1.70;99.90;;;;;;12385679;28;20077;-88
2022/01/08 00:16:55;;;;;;;44.70;22.45;;;1.60;99.90;;;;;;12376966;28;20049;-89
2022/01/08 00:22:57;;;;;;;40.40;21.35;;;1.70;99.90;;;;;;12393713;28;20065;-88
2022/01/08 00:28:59;;;;;;;42.13;21.42;;;1.70;99.90;;;;;;12379124;28;20058;-88
2022/01/08 00:35:01;;;;;;;43.08;21.90;;;1.70;99.90;;;;;;12374150;28;20046;-89
2022/01/08 00:41:03;;;;;;;42.55;21.80;;;1.70;99.90;;;;;;12384071;28;20096;-88
2022/01/08 00:47:05;;;;;;;42.08;22.25;;;1.80;99.90;;;;;;12371510;28;20510;-87
2022/01/08 00:53:07;;;;;;;41.67;22.17;;;1.70;99.90;;;;;;12392690;28;20046;-87
2022/01/08 00:59:09;;;;;;;41.25;22.48;;;1.70;99.90;;;;;;12380377;28;20096;-87
2022/01/08 01:05:11;;;;;;;31.17;17.42;;;1.70;99.90;;;;;;12375067;28;20111;-86
2022/01/08 01:11:13;;;;;;;30.80;16.15;;;1.60;99.90;;;;;;12380462;28;20567;-87
2022/01/08 01:17:15;;;;;;;27.10;14.52;;;1.40;99.90;;;;;;12380077;28;20056;-87
2022/01/08 01:23:24;;;;;;;25.98;15.30;;;1.30;99.90;;;;;;12380224;28;20058;-87
2022/01/08 01:29:42;;;;;;;23.55;13.38;;;1.30;99.90;;;;;;12385374;28;20184;-86
2022/01/08 01:42:20;;;;;;;30.17;16.40;;;1.40;99.90;;;;;;12393064;28;20046;-87
2022/01/08 01:48:22;;;;;;;32.83;16.73;;;1.40;99.90;;;;;;12392399;28;20058;-88
2022/01/08 01:54:25;;;;;;;31.30;17.38;;;1.40;99.90;;;;;;12378943;28;20085;-86
2022/01/08 02:00:27;;;;;;;32.25;18.52;;;1.50;99.90;;;;;;12379019;28;20072;-86
2022/01/08 02:06:28;;;;;;;31.00;18.25;;;1.50;99.90;;;;;;12376339;28;20053;-86
2022/01/08 02:12:33;;;;;;;32.78;18.92;;;1.50;99.90;;;;;;12378088;28;20049;-87
2022/01/08 02:18:35;;;;;;;34.83;19.20;;;1.50;99.90;;;;;;12393430;28;20625;-85
2022/01/08 02:24:37;;;;;;;38.97;20.23;;;1.60;99.90;;;;;;12378887;28;20054;-87
2022/01/08 02:30:39;;;;;;;34.45;20.65;;;1.60;99.90;;;;;;12384199;28;20050;-87
2022/01/08 02:36:42;;;;;;;37.85;21.73;;;1.70;99.90;;;;;;12394270;28;20124;-87
2022/01/08 02:43:00;;;;;;;43.20;21.58;;;1.70;99.90;;;;;;12382226;28;20146;-88
2022/01/08 02:49:02;;;;;;;39.25;21.50;;;1.70;99.90;;;;;;12407920;28;20061;-86
2022/01/08 02:55:05;;;;;;;39.10;22.25;;;1.70;99.90;;;;;;12422682;28;20096;-88
2022/01/08 03:01:06;;;;;;;36.67;21.58;;;1.70;99.90;;;;;;12393261;28;20112;-85
2022/01/08 03:07:09;;;;;;;43.85;22.38;;;1.60;99.90;;;;;;12397165;28;20082;-88
2022/01/08 03:13:11;;;;;;;38.20;21.27;;;1.70;99.90;;;;;;12386855;28;20049;-88
2022/01/08 03:19:14;;;;;;;36.95;22.17;;;1.70;99.90;;;;;;12412497;28;20098;-87
2022/01/08 03:25:16;;;;;;;36.53;20.95;;;1.70;99.90;;;;;;12411602;28;20228;-87
2022/01/08 03:31:19;;;;;;;30.70;19.40;;;1.80;99.90;;;;;;12400174;28;20041;-86
2022/01/08 03:37:21;;;;;;;36.67;19.55;;;1.70;99.90;;;;;;12392912;28;20387;-86
2022/01/08 03:43:23;;;;;;;33.25;19.27;;;1.60;99.90;;;;;;12393169;28;20054;-85
2022/01/08 03:49:25;;;;;;;37.08;19.23;;;1.50;99.90;;;;;;12399628;28;20157;-85
2022/01/08 03:55:27;;;;;;;35.00;19.40;;;1.60;99.90;;;;;;12404207;28;20065;-86
2022/01/08 04:01:29;;;;;;;34.65;18.15;;;1.60;99.90;;;;;;12382636;28;20046;-86
2022/01/08 04:07:31;;;;;;;31.35;18.10;;;1.60;99.90;;;;;;12383461;28;20490;-86
2022/01/08 04:13:36;;;;;;;38.00;20.13;;;1.50;99.90;;;;;;12379693;28;20052;-86
2022/01/08 04:19:38;;;;;;;35.63;19.13;;;1.50;99.90;;;;;;12395628;28;20050;-86
2022/01/08 04:25:40;;;;;;;37.97;20.30;;;1.40;99.90;;;;;;12394239;28;20053;-85
2022/01/08 04:31:42;;;;;;;37.63;20.00;;;1.40;99.90;;;;;;12376771;28;20802;-87
2022/01/08 04:37:44;;;;;;;38.85;19.80;;;1.50;99.90;;;;;;12379048;28;20046;-85
2022/01/08 04:43:46;;;;;;;37.30;19.92;;;1.40;99.90;;;;;;12381666;28;20042;-86
2022/01/08 04:49:48;;;;;;;35.03;18.55;;;1.40;99.90;;;;;;12375936;28;20153;-86
2022/01/08 04:55:50;;;;;;;36.75;19.88;;;1.50;99.90;;;;;;12379239;28;20066;-86
2022/01/08 05:01:51;;;;;;;36.60;19.13;;;1.40;99.90;;;;;;12376795;28;20041;-87
2022/01/08 05:07:53;;;;;;;35.90;20.23;;;1.40;99.90;;;;;;12375873;28;20115;-86
2022/01/08 05:13:56;;;;;;;36.28;20.25;;;1.30;99.90;;;;;;12396423;28;20077;-86
2022/01/08 05:20:02;;;;;;;35.70;18.75;;;1.20;99.90;;;;;;12374009;28;20464;-86
2022/01/08 05:26:04;;;;;;;39.33;21.08;;;1.20;99.90;;;;;;12379837;28;20053;-85
2022/01/08 05:32:06;;;;;;;45.47;22.50;;;1.10;99.90;;;;;;12389923;28;20198;-86
2022/01/08 05:38:08;;;;;;;42.60;21.95;;;1.00;99.90;;;;;;12378163;28;20088;-87
2022/01/08 05:44:10;;;;;;;45.65;22.98;;;0.90;99.90;;;;;;12372801;28;20197;-87
2022/01/08 05:50:12;;;;;;;43.70;23.40;;;0.90;99.90;;;;;;12379794;28;20111;-85
2022/01/08 05:56:13;;;;;;;44.78;23.38;;;1.00;99.90;;;;;;12380902;28;20119;-85
2022/01/08 06:02:15;;;;;;;46.67;23.50;;;1.00;99.90;;;;;;12377129;28;20254;-87
2022/01/08 06:08:18;;;;;;;49.17;24.65;;;1.10;99.90;;;;;;12382991;28;20081;-86
2022/01/08 06:14:20;;;;;;;50.10;24.80;;;1.10;99.90;;;;;;12375153;28;20062;-87
2022/01/08 06:20:22;;;;;;;48.15;23.85;;;1.10;99.90;;;;;;12377966;28;20045;-86
2022/01/08 06:26:24;;;;;;;48.13;24.70;;;1.00;99.90;;;;;;12379947;28;20053;-85
2022/01/08 06:32:26;;;;;;;48.25;23.90;;;1.00;99.90;;;;;;12370509;28;20089;-87
2022/01/08 06:38:28;;;;;;;53.95;26.33;;;0.90;99.90;;;;;;12386198;28;20056;-87
2022/01/08 06:44:30;;;;;;;54.40;26.23;;;1.00;99.90;;;;;;12374234;28;20050;-87
2022/01/08 06:50:32;;;;;;;55.90;24.88;;;0.90;99.90;;;;;;12385649;28;20056;-87
2022/01/08 06:56:33;;;;;;;51.65;24.60;;;0.90;99.90;;;;;;12371584;28;20064;-86
2022/01/08 07:02:35;;;;;;;50.22;25.73;;;0.80;99.90;;;;;;12382214;28;20054;-86
2022/01/08 07:08:37;;;;;;;50.83;25.45;;;0.80;99.90;;;;;;12382382;28;21830;-87
2022/01/08 07:14:39;;;;;;;52.20;24.90;;;0.70;99.90;;;;;;12373405;28;20115;-85
2022/01/08 07:20:41;;;;;;;45.83;23.98;;;0.70;99.90;;;;;;12387474;28;20153;-87
2022/01/08 07:26:43;;;;;;;52.60;25.80;;;0.60;99.90;;;;;;12394274;28;20050;-87
2022/01/08 07:32:47;;;;;;;54.45;25.30;;;0.70;99.90;;;;;;12379312;28;20695;-87
2022/01/08 07:38:49;;;;;;;53.65;25.13;;;0.70;99.90;;;;;;12380354;28;20552;-87
2022/01/08 07:44:51;;;;;;;52.70;25.98;;;0.70;99.90;;;;;;12377599;28;20050;-87
2022/01/08 07:50:53;;;;;;;59.35;26.30;;;0.60;99.90;;;;;;12379435;28;20092;-86
2022/01/08 07:56:55;;;;;;;46.90;24.92;;;0.60;99.90;;;;;;12399519;28;20124;-88
2022/01/08 08:02:56;;;;;;;49.03;24.73;;;0.70;99.90;;;;;;12396037;28;21123;-87
2022/01/08 08:08:59;;;;;;;48.45;25.75;;;0.70;99.90;;;;;;12384912;28;20478;-85
2022/01/08 08:15:01;;;;;;;48.42;24.88;;;0.60;99.90;;;;;;12423514;28;20129;-85
2022/01/08 08:21:03;;;;;;;51.53;25.33;;;0.70;99.90;;;;;;12413383;28;20096;-87
2022/01/08 08:27:05;;;;;;;47.70;25.13;;;0.70;99.90;;;;;;12403117;28;20148;-87
2022/01/08 08:33:07;;;;;;;47.85;26.02;;;0.70;99.90;;;;;;12399214;28;20583;-86
2022/01/08 08:39:10;;;;;;;50.78;25.42;;;0.70;99.90;;;;;;12390882;28;20049;-85
2022/01/08 08:45:12;;;;;;;56.95;27.48;;;0.70;99.90;;;;;;12387463;28;20660;-86
2022/01/08 08:51:14;;;;;;;53.58;27.23;;;0.80;99.90;;;;;;12393095;28;20104;-87
2022/01/08 08:57:16;;;;;;;50.72;25.92;;;0.80;99.90;;;;;;12387166;28;20071;-86
2022/01/08 09:03:18;;;;;;;57.58;26.95;;;0.90;99.90;;;;;;12390130;28;20572;-86
2022/01/08 09:09:20;;;;;;;47.45;23.92;;;0.90;99.90;;;;;;12387385;28;20056;-86
2022/01/08 09:15:25;;;;;;;47.00;24.33;;;1.00;99.90;;;;;;12384827;28;20097;-86
2022/01/08 09:21:27;;;;;;;42.25;24.92;;;1.00;99.90;;;;;;12396549;28;20054;-85
2022/01/08 09:27:29;;;;;;;47.60;25.25;;;1.10;99.90;;;;;;12389048;28;20674;-87
2022/01/08 09:33:32;;;;;;;51.08;25.10;;;1.20;99.90;;;;;;12396803;28;20049;-85
2022/01/08 09:39:34;;;;;;;51.15;25.25;;;1.20;99.90;;;;;;12384041;28;20092;-87
2022/01/08 09:45:36;;;;;;;53.72;26.23;;;1.30;99.90;;;;;;12381429;28;20188;-85
2022/01/08 09:51:38;;;;;;;50.33;25.60;;;1.30;99.90;;;;;;12377674;28;20517;-86
2022/01/08 09:57:40;;;;;;;53.50;27.15;;;1.40;99.90;;;;;;12379503;28;20058;-86
2022/01/08 10:03:44;;;;;;;52.97;26.45;;;1.40;99.90;;;;;;12375034;28;20141;-86
2022/01/08 10:10:06;;;;;;;52.00;24.48;;;1.50;99.90;;;;;;12378749;28;20057;-87
2022/01/08 10:22:32;;;;;;;;;;;1.50;99.90;;;;;;12390399;28;20050;-88
2022/01/08 10:28:47;;;;;;;56.47;29.73;;;1.50;99.90;;;;;;12376437;28;19930;-87
2022/01/08 10:34:49;;;;;;;59.50;28.33;;;1.60;99.90;;;;;;12369523;28;21373;-86
2022/01/08 10:40:51;;;;;;;60.22;29.15;;;1.70;99.90;;;;;;12379897;28;20082;-87
2022/01/08 10:47:00;;;;;;;60.88;29.45;;;1.70;99.90;;;;;;12372704;28;20050;-86
2022/01/08 10:53:03;;;;;;;59.03;29.42;;;1.70;99.90;;;;;;12399530;28;20695;-86
2022/01/08 10:59:09;;;;;;;55.55;29.48;;;1.80;99.90;;;;;;12383356;28;20108;-87
2022/01/08 11:05:12;;;;;;;58.28;31.10;;;1.80;99.90;;;;;;12388678;28;20113;-85
2022/01/08 11:11:16;;;;;;;60.22;31.38;;;1.90;99.90;;;;;;12388820;28;20053;-87
2022/01/08 11:17:24;;;;;;;60.50;31.07;;;2.00;99.90;;;;;;12382327;28;20072;-87
2022/01/08 11:23:31;;;;;;;58.10;30.13;;;2.10;99.90;;;;;;12388681;28;20046;-85
2022/01/08 11:29:35;;;;;;;67.05;31.48;;;2.10;99.90;;;;;;12393700;28;20136;-85
2022/01/08 11:35:38;;;;;;;57.83;27.67;;;2.10;99.90;;;;;;12394594;28;20176;-85
2022/01/08 11:41:41;;;;;;;57.90;29.08;;;2.10;99.90;;;;;;12408087;28;20293;-88
2022/01/08 11:47:57;;;;;;;53.25;28.38;;;2.10;99.90;;;;;;12382885;28;20053;-89
2022/01/08 11:53:59;;;;;;;55.20;26.73;;;2.20;99.90;;;;;;12380003;28;20057;-88
2022/01/08 12:00:03;;;;;;;55.50;28.48;;;2.20;99.90;;;;;;12383757;28;20119;-86
2022/01/08 12:06:26;;;;;;;44.25;23.95;;;2.10;99.90;;;;;;12404732;28;20501;-87
2022/01/08 12:12:51;;;;;;;47.03;24.80;;;2.10;99.90;;;;;;12394562;28;20233;-87
2022/01/08 12:18:53;;;;;;;;;;;2.10;99.90;;;;;;12376817;28;20085;-85
2022/01/08 12:25:00;;;;;;;58.47;29.33;;;2.20;99.90;;;;;;12379510;28;19967;-87
2022/01/08 12:31:21;;;;;;;47.35;23.25;;;2.20;99.90;;;;;;12399177;28;20458;-86
2022/01/08 12:37:38;;;;;;;36.20;21.77;;;2.20;99.90;;;;;;12397378;28;20144;-86
2022/01/08 12:43:39;;;;;;;37.47;20.73;;;2.20;99.90;;;;;;12374326;28;20057;-85
2022/01/08 12:50:16;;;;;;;35.55;17.48;;;2.20;99.90;;;;;;12380006;28;20084;-86
2022/01/08 12:56:18;;;;;;;;;;;2.30;99.90;;;;;;12389329;28;20111;-86
2022/01/08 13:02:21;;;;;;;26.85;12.38;;;2.40;99.90;;;;;;12387066;28;21050;-86
2022/01/08 13:08:24;;;;;;;26.63;12.13;;;2.50;99.90;;;;;;12386125;28;20053;-86
2022/01/08 13:14:30;;;;;;;26.42;11.98;;;2.60;99.90;;;;;;12377148;28;20042;-87
2022/01/08 13:20:32;;;;;;;24.88;12.02;;;2.60;99.90;;;;;;12397046;28;20070;-85
2022/01/08 13:26:36;;;;;;;27.98;12.45;;;2.70;99.90;;;;;;12381506;28;20050;-86
2022/01/08 13:32:38;;;;;;;21.60;12.10;;;2.70;99.90;;;;;;12382008;28;20137;-86
2022/01/08 13:38:41;;;;;;;27.70;11.65;;;2.80;99.90;;;;;;12374439;28;20104;-85
2022/01/08 13:44:47;;;;;;;21.95;11.30;;;2.90;99.90;;;;;;12369349;28;20053;-86
2022/01/08 13:50:56;;;;;;;21.10;10.07;;;2.90;99.90;;;;;;12369358;28;20050;-85
2022/01/08 13:57:11;;;;;;;20.25;9.73;;;2.90;99.90;;;;;;12373002;28;20050;-85
2022/01/08 14:03:25;;;;;;;22.17;9.60;;;2.80;99.90;;;;;;12388095;28;20129;-85
2022/01/08 14:09:27;;;;;;;19.67;8.82;;;2.80;99.90;;;;;;12392854;28;20512;-85
2022/01/08 14:15:30;;;;;;;17.70;9.38;;;2.70;99.90;;;;;;12365746;28;20114;-86
2022/01/08 14:21:32;;;;;;;18.92;8.70;;;2.70;99.90;;;;;;12358968;28;20096;-85
2022/01/08 14:27:38;;;;;;;16.67;8.05;;;2.80;99.90;;;;;;12380649;28;20054;-84
2022/01/08 14:34:08;;;;;;;14.48;6.88;;;2.70;99.90;;;;;;12378127;28;20117;-87
2022/01/08 14:40:18;;;;;;;15.98;6.68;;;2.70;99.90;;;;;;12376731;28;20050;-87
2022/01/08 14:46:20;;;;;;;11.23;5.35;;;2.70;99.90;;;;;;12381302;28;20072;-86
2022/01/08 14:52:22;;;;;;;10.35;5.45;;;2.70;99.90;;;;;;12395472;28;20054;-87
2022/01/08 14:58:26;;;;;;;13.25;4.72;;;2.60;99.90;;;;;;12379376;28;20046;-86
2022/01/08 15:04:28;;;;;;;10.57;3.42;;;2.60;99.90;;;;;;12381896;28;20041;-87
2022/01/08 15:10:31;;;;;;;9.27;3.58;;;2.50;99.90;;;;;;12390073;28;20077;-86
2022/01/08 15:16:33;;;;;;;11.63;3.38;;;2.50;99.90;;;;;;12399539;28;20174;-85
2022/01/08 15:22:35;;;;;;;12.80;3.80;;;2.50;99.90;;;;;;12381943;28;20153;-86
2022/01/08 15:28:37;;;;;;;9.13;3.03;;;2.50;99.90;;;;;;12387402;28;20117;-86
2022/01/08 15:34:39;;;;;;;7.18;2.47;;;2.50;99.90;;;;;;12376529;28;20046;-86
2022/01/08 15:40:41;;;;;;;8.30;2.40;;;2.50;99.90;;;;;;12387031;28;20060;-85
2022/01/08 15:46:44;;;;;;;9.18;2.95;;;2.60;99.90;;;;;;12374875;28;20506;-87
2022/01/08 15:52:46;;;;;;;10.02;2.90;;;2.50;99.90;;;;;;12376485;28;20061;-86
2022/01/08 15:58:48;;;;;;;7.13;2.67;;;2.50;99.90;;;;;;12381653;28;20054;-85
2022/01/08 16:04:50;;;;;;;6.32;2.35;;;2.60;99.90;;;;;;12377167;28;20042;-86
2022/01/08 16:10:53;;;;;;;5.68;2.40;;;2.60;99.90;;;;;;12381100;28;20085;-86
2022/01/08 16:16:55;;;;;;;7.10;2.40;;;2.60;99.90;;;;;;12371972;28;20046;-86
2022/01/08 16:22:57;;;;;;;6.18;2.38;;;2.50;99.90;;;;;;12390859;28;20153;-85
2022/01/08 16:28:59;;;;;;;7.15;2.10;;;2.50;99.90;;;;;;12389739;28;20085;-84
2022/01/08 16:35:01;;;;;;;4.82;1.73;;;2.50;99.90;;;;;;12405283;28;20041;-86
2022/01/08 16:41:04;;;;;;;6.65;2.15;;;2.60;99.90;;;;;;12408386;28;20071;-86
2022/01/08 16:47:06;;;;;;;5.40;2.05;;;2.50;99.90;;;;;;12379659;28;20559;-85
2022/01/08 16:53:10;;;;;;;8.10;2.33;;;2.50;99.90;;;;;;12402219;28;21076;-86
2022/01/08 16:59:13;;;;;;;6.77;2.23;;;2.40;99.90;;;;;;12383731;28;20054;-86
2022/01/08 17:05:17;;;;;;;9.15;2.40;;;2.40;99.90;;;;;;12396893;28;20050;-88
2022/01/08 17:11:19;;;;;;;7.78;2.95;;;2.40;99.90;;;;;;12376970;28;20141;-87
2022/01/08 17:17:21;;;;;;;3.92;2.00;;;2.40;99.90;;;;;;12383801;28;20041;-86
2022/01/08 17:23:23;;;;;;;8.55;2.38;;;2.40;99.90;;;;;;12391708;28;20506;-85
2022/01/08 17:29:25;;;;;;;7.03;2.50;;;2.20;99.90;;;;;;12388576;28;20109;-85
2022/01/08 17:35:28;;;;;;;6.47;2.70;;;2.10;99.90;;;;;;12382346;28;20046;-86
2022/01/08 17:41:30;;;;;;;8.40;2.88;;;2.00;99.90;;;;;;12373361;28;20054;-87
2022/01/08 17:47:32;;;;;;;9.13;2.88;;;1.90;99.90;;;;;;12397758;28;20103;-86
2022/01/08 17:53:34;;;;;;;5.35;2.88;;;1.80;99.90;;;;;;12390129;28;20371;-85
2022/01/08 17:59:36;;;;;;;5.88;3.13;;;1.60;99.90;;;;;;12376194;28;21040;-87
2022/01/08 18:05:39;;;;;;;8.95;3.72;;;1.60;99.90;;;;;;12370251;28;22304;-87
2022/01/08 18:11:42;;;;;;;7.63;3.80;;;1.60;99.90;;;;;;12374565;28;20145;-86
2022/01/08 18:17:45;;;;;;;10.93;3.60;;;1.60;99.90;;;;;;12370356;28;20484;-87
2022/01/08 18:23:48;;;;;;;6.47;3.77;;;1.70;99.90;;;;;;12372779;28;20061;-86
2022/01/08 18:29:51;;;;;;;8.40;3.88;;;1.80;99.90;;;;;;12379803;28;20078;-86
2022/01/08 18:35:52;;;;;;;10.07;3.83;;;1.70;99.90;;;;;;12375849;28;20049;-88
2022/01/08 18:41:55;;;;;;;8.20;4.20;;;1.70;99.90;;;;;;12366307;28;20299;-88
2022/01/08 18:47:57;;;;;;;6.40;3.63;;;1.80;99.90;;;;;;12369897;28;20125;-86
2022/01/08 18:53:59;;;;;;;8.93;3.20;;;1.90;99.90;;;;;;12388230;28;20604;-86
2022/01/08 19:00:08;;;;;;;7.88;3.40;;;2.00;99.90;;;;;;12353613;28;20070;-86
2022/01/08 19:06:10;;;;;;;5.47;2.78;;;2.00;99.90;;;;;;12379461;28;20570;-87
2022/01/08 19:12:12;;;;;;;4.72;2.85;;;2.10;99.90;;;;;;12388810;28;20088;-85
2022/01/08 19:18:19;;;;;;;5.40;2.67;;;2.20;99.90;;;;;;12404508;28;20527;-87
2022/01/08 19:24:21;;;;;;;6.40;2.90;;;2.30;99.90;;;;;;12382796;28;20033;-87
2022/01/08 19:30:23;;;;;;;5.60;2.95;;;2.30;99.90;;;;;;12381119;28;20099;-87
2022/01/08 19:36:25;;;;;;;4.15;2.70;;;2.30;99.90;;;;;;12372510;28;20494;-84
2022/01/08 19:42:27;;;;;;;3.67;1.95;;;2.40;99.90;;;;;;12404262;28;20042;-88
2022/01/08 19:48:29;;;;;;;4.32;2.05;;;2.40;99.90;;;;;;12385212;28;20111;-85
2022/01/08 19:54:32;;;;;;;3.20;1.70;;;2.40;99.90;;;;;;12375132;28;20054;-88
2022/01/08 20:00:34;;;;;;;4.70;2.00;;;2.50;99.90;;;;;;12376198;28;20050;-86
2022/01/08 20:06:36;;;;;;;3.03;1.67;;;2.50;99.90;;;;;;12357821;28;20517;-86
2022/01/08 20:12:39;;;;;;;4.07;1.58;;;2.60;99.90;;;;;;12371037;28;20153;-86
2022/01/08 20:18:41;;;;;;;2.63;1.60;;;2.70;99.90;;;;;;12381627;28;20054;-87
2022/01/08 20:24:43;;;;;;;3.03;1.40;;;2.80;99.90;;;;;;12372999;28;20121;-85
2022/01/08 20:30:45;;;;;;;2.83;1.40;;;2.90;99.90;;;;;;12392389;28;20046;-86
2022/01/08 20:36:47;;;;;;;4.78;1.42;;;2.90;99.90;;;;;;12391779;28;20058;-84
2022/01/08 20:42:49;;;;;;;2.03;1.33;;;2.90;99.90;;;;;;12374241;28;20406;-84
2022/01/08 20:48:51;;;;;;;2.42;1.00;;;2.90;99.90;;;;;;12385083;28;20755;-85
2022/01/08 20:54:53;;;;;;;2.35;1.27;;;2.90;99.90;;;;;;12394673;28;20669;-87
2022/01/08 21:00:55;;;;;;;1.83;1.02;;;2.90;99.90;;;;;;12397882;28;20176;-87
2022/01/08 21:06:57;;;;;;;1.70;1.20;;;2.90;99.90;;;;;;12384447;28;20177;-85
2022/01/08 21:12:59;;;;;;;2.28;1.25;;;3.00;99.90;;;;;;12398675;28;20576;-87
2022/01/08 21:19:02;;;;;;;2.38;1.42;;;3.00;99.90;;;;;;12378110;28;20066;-84
2022/01/08 21:25:05;;;;;;;1.80;1.13;;;3.00;99.90;;;;;;12373238;28;20497;-87
2022/01/08 21:31:07;;;;;;;2.85;1.50;;;2.90;99.90;;;;;;12392936;28;20054;-86
2022/01/08 21:37:11;;;;;;;2.28;1.33;;;3.10;99.90;;;;;;12372438;28;20659;-87
2022/01/08 21:43:13;;;;;;;2.78;1.67;;;3.00;99.90;;;;;;12389268;28;20042;-87
2022/01/08 21:49:15;;;;;;;3.45;1.40;;;3.00;99.90;;;;;;12390022;28;20054;-86
2022/01/08 21:55:17;;;;;;;4.55;1.40;;;3.10;99.90;;;;;;12394615;28;20145;-86
2022/01/08 22:01:20;;;;;;;2.75;1.60;;;3.10;99.90;;;;;;12405497;28;20264;-86
2022/01/08 22:07:22;;;;;;;2.58;1.50;;;3.20;99.90;;;;;;12378190;28;20069;-85
2022/01/08 22:13:24;;;;;;;2.83;1.60;;;3.20;99.90;;;;;;12377145;28;20121;-86
2022/01/08 22:19:26;;;;;;;2.30;1.35;;;3.20;99.90;;;;;;12382740;28;20080;-86
2022/01/08 22:25:28;;;;;;;2.85;1.45;;;3.30;99.90;;;;;;12392535;28;20058;-85
2022/01/08 22:31:30;;;;;;;1.98;1.20;;;3.20;99.90;;;;;;12397432;28;20054;-86
2022/01/08 22:37:32;;;;;;;2.42;1.15;;;3.30;99.90;;;;;;12388330;28;20043;-85
2022/01/08 22:43:34;;;;;;;2.10;1.33;;;3.20;99.90;;;;;;12393692;28;20101;-85
2022/01/08 22:49:36;;;;;;;4.05;1.63;;;3.20;99.90;;;;;;12394030;28;20053;-86
2022/01/08 22:55:39;;;;;;;4.20;1.83;;;3.10;99.90;;;;;;12385154;28;20113;-85
2022/01/08 23:01:41;;;;;;;3.08;1.60;;;3.10;99.90;;;;;;12388425;28;20073;-86
2022/01/08 23:07:43;;;;;;;2.95;1.70;;;3.10;99.90;;;;;;12390668;28;20058;-86
2022/01/08 23:13:48;;;;;;;;;;;3.00;99.90;;;;;;12391987;28;20061;-86
2022/01/08 23:19:50;;;;;;;3.40;1.75;;;3.10;99.90;;;;;;12384583;28;19956;-85
2022/01/08 23:25:52;;;;;;;4.97;1.67;;;3.00;99.90;;;;;;12386125;28;20123;-85
2022/01/08 23:31:54;;;;;;;4.47;1.85;;;3.00;99.90;;;;;;12406989;28;20054;-86
2022/01/08 23:37:56;;;;;;;3.53;1.98;;;3.00;99.90;;;;;;12394558;28;20121;-87
2022/01/08 23:43:57;;;;;;;3.67;1.67;;;2.90;99.90;;;;;;12403321;28;20069;-86
2022/01/08 23:50:03;;;;;;;3.45;1.60;;;2.80;99.90;;;;;;12393855;28;20061;-87
2022/01/08 23:56:06;;;;;;;2.70;1.80;;;2.90;99.90;;;;;;12388662;28;20092;-88
